sensor_id;sensor_type;location;lat;lon;timestamp;temperature;humidity
13148;DHT22;6639;50.956;4.242;2023-01-08T00:00:17;13.30;99.90
13148;DHT22;6639;50.956;4.242;2023-01-08T00:02:45;13.50;99.90
13148;DHT22;6639;50.956;4.242;2023-01-08T00:05:14;13.40;99.90
13148;DHT22;6639;50.956;4.242;2023-01-08T00:07:41;13.20;99.90
13148;DHT22;6639;50.956;4.242;2023-01-08T00:10:09;12.80;99.90
13148;DHT22;6639;50.956;4.242;2023-01-08T00:12:36;12.60;99.90
13148;DHT22;6639;50.956;4.242;2023-01-08T00:15:04;12.40;99.90
13148;DHT22;6639;50.956;4.242;2023-01-08T00:17:31;12.40;99.90
13148;DHT22;6639;50.956;4.242;2023-01-08T00:19:58;12.60;99.90
13148;DHT22;6639;50.956;4.242;2023-01-08T00:22:25;12.40;99.90
13148;DHT22;6639;50.956;4.242;2023-01-08T00:24:52;12.20;99.90
13148;DHT22;6639;50.956;4.242;2023-01-08T00:27:20;12.00;99.90
13148;DHT22;6639;50.956;4.242;2023-01-08T00:29:47;12.10;99.90
13148;DHT22;6639;50.956;4.242;2023-01-08T00:32:14;12.40;99.90
13148;DHT22;6639;50.956;4.242;2023-01-08T00:34:41;12.50;99.90
13148;DHT22;6639;50.956;4.242;2023-01-08T00:37:08;11.90;99.90
13148;DHT22;6639;50.956;4.242;2023-01-08T00:39:35;11.60;99.90
13148;DHT22;6639;50.956;4.242;2023-01-08T00:42:02;11.70;99.90
13148;DHT22;6639;50.956;4.242;2023-01-08T00:44:30;11.80;99.90
13148;DHT22;6639;50.956;4.242;2023-01-08T00:46:57;12.10;99.90
13148;DHT22;6639;50.956;4.242;2023-01-08T00:49:24;11.90;99.90
13148;DHT22;6639;50.956;4.242;2023-01-08T00:51:51;12.00;99.90
13148;DHT22;6639;50.956;4.242;2023-01-08T00:54:18;12.00;99.90
13148;DHT22;6639;50.956;4.242;2023-01-08T00:56:45;11.80;99.90
13148;DHT22;6639;50.956;4.242;2023-01-08T00:59:12;11.90;99.90
13148;DHT22;6639;50.956;4.242;2023-01-08T01:01:40;11.70;99.90
13148;DHT22;6639;50.956;4.242;2023-01-08T01:04:07;11.90;99.90
13148;DHT22;6639;50.956;4.242;2023-01-08T01:06:34;11.40;99.90
13148;DHT22;6639;50.956;4.242;2023-01-08T01:09:01;11.60;99.90
13148;DHT22;6639;50.956;4.242;2023-01-08T01:11:28;11.80;99.90
13148;DHT22;6639;50.956;4.242;2023-01-08T01:13:55;11.70;99.90
13148;DHT22;6639;50.956;4.242;2023-01-08T01:16:22;11.90;99.90
13148;DHT22;6639;50.956;4.242;2023-01-08T01:18:51;12.40;99.90
13148;DHT22;6639;50.956;4.242;2023-01-08T01:21:22;12.40;99.90
13148;DHT22;6639;50.956;4.242;2023-01-08T01:23:52;12.40;99.90
13148;DHT22;6639;50.956;4.242;2023-01-08T01:26:24;12.50;99.90
13148;DHT22;6639;50.956;4.242;2023-01-08T01:28:53;12.90;99.90
13148;DHT22;6639;50.956;4.242;2023-01-08T01:31:21;12.60;99.90
13148;DHT22;6639;50.956;4.242;2023-01-08T01:33:51;12.60;99.90
13148;DHT22;6639;50.956;4.242;2023-01-08T01:36:20;12.60;99.90
13148;DHT22;6639;50.956;4.242;2023-01-08T01:38:49;12.70;99.90
13148;DHT22;6639;50.956;4.242;2023-01-08T01:41:20;12.90;99.90
13148;DHT22;6639;50.956;4.242;2023-01-08T01:43:50;13.20;99.90
13148;DHT22;6639;50.956;4.242;2023-01-08T01:46:21;13.10;99.90
13148;DHT22;6639;50.956;4.242;2023-01-08T01:48:54;12.60;99.90
13148;DHT22;6639;50.956;4.242;2023-01-08T01:51:27;12.50;99.90
13148;DHT22;6639;50.956;4.242;2023-01-08T01:53:55;12.90;99.90
13148;DHT22;6639;50.956;4.242;2023-01-08T01:56:23;12.80;99.90
13148;DHT22;6639;50.956;4.242;2023-01-08T01:58:51;12.70;99.90
13148;DHT22;6639;50.956;4.242;2023-01-08T02:01:18;12.80;99.90
13148;DHT22;6639;50.956;4.242;2023-01-08T02:03:46;12.90;99.90
13148;DHT22;6639;50.956;4.242;2023-01-08T02:06:27;13.40;99.90
13148;DHT22;6639;50.956;4.242;2023-01-08T02:09:01;13.40;99.90
13148;DHT22;6639;50.956;4.242;2023-01-08T02:11:36;13.40;99.90
13148;DHT22;6639;50.956;4.242;2023-01-08T02:14:10;13.70;99.90
13148;DHT22;6639;50.956;4.242;2023-01-08T02:16:43;14.00;99.90
13148;DHT22;6639;50.956;4.242;2023-01-08T02:19:19;14.20;99.90
13148;DHT22;6639;50.956;4.242;2023-01-08T02:21:57;13.70;99.90
13148;DHT22;6639;50.956;4.242;2023-01-08T02:24:37;13.60;99.90
13148;DHT22;6639;50.956;4.242;2023-01-08T02:27:08;14.00;99.90
13148;DHT22;6639;50.956;4.242;2023-01-08T02:29:36;13.70;99.90
13148;DHT22;6639;50.956;4.242;2023-01-08T02:32:03;13.80;99.90
13148;DHT22;6639;50.956;4.242;2023-01-08T02:34:30;13.80;99.90
13148;DHT22;6639;50.956;4.242;2023-01-08T02:36:58;13.80;99.90
13148;DHT22;6639;50.956;4.242;2023-01-08T02:39:40;14.00;99.90
13148;DHT22;6639;50.956;4.242;2023-01-08T02:42:15;13.70;99.90
13148;DHT22;6639;50.956;4.242;2023-01-08T02:44:56;13.50;99.90
13148;DHT22;6639;50.956;4.242;2023-01-08T02:47:30;13.30;99.90
13148;DHT22;6639;50.956;4.242;2023-01-08T02:50:03;13.40;99.90
13148;DHT22;6639;50.956;4.242;2023-01-08T02:52:35;13.50;99.90
13148;DHT22;6639;50.956;4.242;2023-01-08T02:55:04;13.00;99.90
13148;DHT22;6639;50.956;4.242;2023-01-08T02:57:34;13.10;99.90
13148;DHT22;6639;50.956;4.242;2023-01-08T03:00:02;13.10;99.90
13148;DHT22;6639;50.956;4.242;2023-01-08T03:02:31;12.90;99.90
13148;DHT22;6639;50.956;4.242;2023-01-08T03:05:08;13.00;99.90
13148;DHT22;6639;50.956;4.242;2023-01-08T03:07:45;13.60;99.90
13148;DHT22;6639;50.956;4.242;2023-01-08T03:10:14;13.40;99.90
13148;DHT22;6639;50.956;4.242;2023-01-08T03:12:52;13.20;99.90
13148;DHT22;6639;50.956;4.242;2023-01-08T03:15:24;13.20;99.90
13148;DHT22;6639;50.956;4.242;2023-01-08T03:17:56;13.40;99.90
13148;DHT22;6639;50.956;4.242;2023-01-08T03:20:25;13.40;99.90
13148;DHT22;6639;50.956;4.242;2023-01-08T03:22:55;13.40;99.90
13148;DHT22;6639;50.956;4.242;2023-01-08T03:25:25;13.10;99.90
13148;DHT22;6639;50.956;4.242;2023-01-08T03:27:59;13.30;99.90
13148;DHT22;6639;50.956;4.242;2023-01-08T03:30:28;12.90;99.90
13148;DHT22;6639;50.956;4.242;2023-01-08T03:32:58;13.10;99.90
13148;DHT22;6639;50.956;4.242;2023-01-08T03:35:29;13.10;99.90
13148;DHT22;6639;50.956;4.242;2023-01-08T03:38:05;13.00;99.90
13148;DHT22;6639;50.956;4.242;2023-01-08T03:40:39;13.20;99.90
13148;DHT22;6639;50.956;4.242;2023-01-08T03:43:10;13.40;99.90
13148;DHT22;6639;50.956;4.242;2023-01-08T03:45:40;12.70;99.90
13148;DHT22;6639;50.956;4.242;2023-01-08T03:48:09;13.20;99.90
13148;DHT22;6639;50.956;4.242;2023-01-08T03:50:36;13.40;99.90
13148;DHT22;6639;50.956;4.242;2023-01-08T03:53:03;13.50;99.90
13148;DHT22;6639;50.956;4.242;2023-01-08T03:55:30;13.00;99.90
13148;DHT22;6639;50.956;4.242;2023-01-08T03:57:57;12.30;99.90
13148;DHT22;6639;50.956;4.242;2023-01-08T04:00:26;12.30;99.90
13148;DHT22;6639;50.956;4.242;2023-01-08T04:02:53;12.40;99.90
13148;DHT22;6639;50.956;4.242;2023-01-08T04:05:20;12.40;99.90
13148;DHT22;6639;50.956;4.242;2023-01-08T04:07:47;12.20;99.90
13148;DHT22;6639;50.956;4.242;2023-01-08T04:10:14;12.60;99.90
13148;DHT22;6639;50.956;4.242;2023-01-08T04:12:42;12.30;99.90
13148;DHT22;6639;50.956;4.242;2023-01-08T04:15:10;12.50;99.90
13148;DHT22;6639;50.956;4.242;2023-01-08T04:17:38;13.10;99.90
13148;DHT22;6639;50.956;4.242;2023-01-08T04:20:08;12.70;99.90
13148;DHT22;6639;50.956;4.242;2023-01-08T04:22:35;12.50;99.90
13148;DHT22;6639;50.956;4.242;2023-01-08T04:25:03;12.40;99.90
13148;DHT22;6639;50.956;4.242;2023-01-08T04:27:30;12.70;99.90
13148;DHT22;6639;50.956;4.242;2023-01-08T04:29:57;12.60;99.90
13148;DHT22;6639;50.956;4.242;2023-01-08T04:32:24;12.30;99.90
13148;DHT22;6639;50.956;4.242;2023-01-08T04:34:53;12.20;99.90
13148;DHT22;6639;50.956;4.242;2023-01-08T04:37:20;12.20;99.90
13148;DHT22;6639;50.956;4.242;2023-01-08T04:39:47;12.10;99.90
13148;DHT22;6639;50.956;4.242;2023-01-08T04:42:14;12.30;99.90
13148;DHT22;6639;50.956;4.242;2023-01-08T04:44:41;12.70;99.90
13148;DHT22;6639;50.956;4.242;2023-01-08T04:47:08;12.50;99.90
13148;DHT22;6639;50.956;4.242;2023-01-08T04:49:35;12.40;99.90
13148;DHT22;6639;50.956;4.242;2023-01-08T04:52:04;12.20;99.90
13148;DHT22;6639;50.956;4.242;2023-01-08T04:54:31;12.00;99.90
13148;DHT22;6639;50.956;4.242;2023-01-08T04:56:58;11.40;99.90
13148;DHT22;6639;50.956;4.242;2023-01-08T04:59:25;11.80;99.90
13148;DHT22;6639;50.956;4.242;2023-01-08T05:01:52;11.60;99.90
13148;DHT22;6639;50.956;4.242;2023-01-08T05:04:22;11.80;99.90
13148;DHT22;6639;50.956;4.242;2023-01-08T05:06:49;12.30;99.90
13148;DHT22;6639;50.956;4.242;2023-01-08T05:09:17;12.60;99.90
13148;DHT22;6639;50.956;4.242;2023-01-08T05:11:44;12.80;99.90
13148;DHT22;6639;50.956;4.242;2023-01-08T05:14:12;12.70;99.90
13148;DHT22;6639;50.956;4.242;2023-01-08T05:16:42;12.90;99.90
13148;DHT22;6639;50.956;4.242;2023-01-08T05:19:09;12.60;99.90
13148;DHT22;6639;50.956;4.242;2023-01-08T05:21:36;12.70;99.90
13148;DHT22;6639;50.956;4.242;2023-01-08T05:24:03;12.80;99.90
13148;DHT22;6639;50.956;4.242;2023-01-08T05:26:34;12.50;99.90
13148;DHT22;6639;50.956;4.242;2023-01-08T05:29:01;12.70;99.90
13148;DHT22;6639;50.956;4.242;2023-01-08T05:31:29;12.40;99.90
13148;DHT22;6639;50.956;4.242;2023-01-08T05:33:57;12.10;99.90
13148;DHT22;6639;50.956;4.242;2023-01-08T05:36:24;12.10;99.90
13148;DHT22;6639;50.956;4.242;2023-01-08T05:38:53;12.10;99.90
13148;DHT22;6639;50.956;4.242;2023-01-08T05:41:21;12.00;99.90
13148;DHT22;6639;50.956;4.242;2023-01-08T05:43:49;12.00;99.90
13148;DHT22;6639;50.956;4.242;2023-01-08T05:46:16;11.90;99.90
13148;DHT22;6639;50.956;4.242;2023-01-08T05:48:43;11.70;99.90
13148;DHT22;6639;50.956;4.242;2023-01-08T05:51:11;11.90;99.90
13148;DHT22;6639;50.956;4.242;2023-01-08T05:53:38;11.70;99.90
13148;DHT22;6639;50.956;4.242;2023-01-08T05:56:06;11.40;99.90
13148;DHT22;6639;50.956;4.242;2023-01-08T05:58:34;11.40;99.90
13148;DHT22;6639;50.956;4.242;2023-01-08T06:01:04;11.70;99.90
13148;DHT22;6639;50.956;4.242;2023-01-08T06:03:31;11.80;99.90
13148;DHT22;6639;50.956;4.242;2023-01-08T06:05:59;11.70;99.90
13148;DHT22;6639;50.956;4.242;2023-01-08T06:08:27;12.00;99.90
13148;DHT22;6639;50.956;4.242;2023-01-08T06:10:57;12.00;99.90
13148;DHT22;6639;50.956;4.242;2023-01-08T06:13:25;12.10;99.90
13148;DHT22;6639;50.956;4.242;2023-01-08T06:15:52;12.10;99.90
13148;DHT22;6639;50.956;4.242;2023-01-08T06:18:21;12.00;99.90
13148;DHT22;6639;50.956;4.242;2023-01-08T06:20:48;12.00;99.90
13148;DHT22;6639;50.956;4.242;2023-01-08T06:23:15;12.00;99.90
13148;DHT22;6639;50.956;4.242;2023-01-08T06:25:42;12.10;99.90
13148;DHT22;6639;50.956;4.242;2023-01-08T06:28:10;11.90;99.90
13148;DHT22;6639;50.956;4.242;2023-01-08T06:30:37;11.40;99.90
13148;DHT22;6639;50.956;4.242;2023-01-08T06:33:04;11.40;99.90
13148;DHT22;6639;50.956;4.242;2023-01-08T06:35:32;12.00;99.90
13148;DHT22;6639;50.956;4.242;2023-01-08T06:37:59;11.70;99.90
13148;DHT22;6639;50.956;4.242;2023-01-08T06:40:26;11.90;99.90
13148;DHT22;6639;50.956;4.242;2023-01-08T06:42:54;11.70;99.90
13148;DHT22;6639;50.956;4.242;2023-01-08T06:45:21;11.50;99.90
13148;DHT22;6639;50.956;4.242;2023-01-08T06:47:48;11.60;99.90
13148;DHT22;6639;50.956;4.242;2023-01-08T06:50:15;11.70;99.90
13148;DHT22;6639;50.956;4.242;2023-01-08T06:52:51;11.80;99.90
13148;DHT22;6639;50.956;4.242;2023-01-08T06:55:18;11.50;99.90
13148;DHT22;6639;50.956;4.242;2023-01-08T06:57:46;11.40;99.90
13148;DHT22;6639;50.956;4.242;2023-01-08T07:00:13;11.50;99.90
13148;DHT22;6639;50.956;4.242;2023-01-08T07:02:41;11.50;99.90
13148;DHT22;6639;50.956;4.242;2023-01-08T07:05:11;11.30;99.90
13148;DHT22;6639;50.956;4.242;2023-01-08T07:07:38;11.30;99.90
13148;DHT22;6639;50.956;4.242;2023-01-08T07:10:07;11.20;99.90
13148;DHT22;6639;50.956;4.242;2023-01-08T07:12:34;11.10;99.90
13148;DHT22;6639;50.956;4.242;2023-01-08T07:15:07;11.20;99.90
13148;DHT22;6639;50.956;4.242;2023-01-08T07:17:34;11.00;99.90
13148;DHT22;6639;50.956;4.242;2023-01-08T07:20:01;10.80;99.90
13148;DHT22;6639;50.956;4.242;2023-01-08T07:22:29;10.70;99.90
13148;DHT22;6639;50.956;4.242;2023-01-08T07:24:56;10.70;99.90
13148;DHT22;6639;50.956;4.242;2023-01-08T07:27:33;10.80;99.90
13148;DHT22;6639;50.956;4.242;2023-01-08T07:30:00;11.00;99.90
13148;DHT22;6639;50.956;4.242;2023-01-08T07:32:28;10.90;99.90
13148;DHT22;6639;50.956;4.242;2023-01-08T07:34:54;11.00;99.90
13148;DHT22;6639;50.956;4.242;2023-01-08T07:37:23;11.80;99.90
13148;DHT22;6639;50.956;4.242;2023-01-08T07:39:50;12.00;99.90
13148;DHT22;6639;50.956;4.242;2023-01-08T07:42:18;12.20;99.90
13148;DHT22;6639;50.956;4.242;2023-01-08T07:44:47;11.40;99.90
13148;DHT22;6639;50.956;4.242;2023-01-08T07:47:14;11.30;99.90
13148;DHT22;6639;50.956;4.242;2023-01-08T07:49:41;11.10;99.90
13148;DHT22;6639;50.956;4.242;2023-01-08T07:52:11;11.20;99.90
13148;DHT22;6639;50.956;4.242;2023-01-08T07:54:38;11.50;99.90
13148;DHT22;6639;50.956;4.242;2023-01-08T07:57:06;11.60;99.90
13148;DHT22;6639;50.956;4.242;2023-01-08T07:59:33;11.60;99.90
13148;DHT22;6639;50.956;4.242;2023-01-08T08:02:02;11.50;99.90
13148;DHT22;6639;50.956;4.242;2023-01-08T08:04:29;12.00;99.90
13148;DHT22;6639;50.956;4.242;2023-01-08T08:06:56;12.20;99.90
13148;DHT22;6639;50.956;4.242;2023-01-08T08:09:23;12.10;99.90
13148;DHT22;6639;50.956;4.242;2023-01-08T08:11:51;12.20;99.90
13148;DHT22;6639;50.956;4.242;2023-01-08T08:14:18;12.10;99.90
13148;DHT22;6639;50.956;4.242;2023-01-08T08:16:45;11.70;99.90
13148;DHT22;6639;50.956;4.242;2023-01-08T08:19:16;11.50;99.90
13148;DHT22;6639;50.956;4.242;2023-01-08T08:21:43;11.50;99.90
13148;DHT22;6639;50.956;4.242;2023-01-08T08:24:10;11.30;99.90
13148;DHT22;6639;50.956;4.242;2023-01-08T08:26:37;11.90;99.90
13148;DHT22;6639;50.956;4.242;2023-01-08T08:29:06;12.10;99.90
13148;DHT22;6639;50.956;4.242;2023-01-08T08:31:33;12.10;99.90
13148;DHT22;6639;50.956;4.242;2023-01-08T08:34:00;11.60;99.90
13148;DHT22;6639;50.956;4.242;2023-01-08T08:36:29;11.60;99.90
13148;DHT22;6639;50.956;4.242;2023-01-08T08:38:57;12.20;99.90
13148;DHT22;6639;50.956;4.242;2023-01-08T08:41:24;12.40;99.90
13148;DHT22;6639;50.956;4.242;2023-01-08T08:43:51;12.40;99.90
13148;DHT22;6639;50.956;4.242;2023-01-08T08:46:19;12.50;99.90
13148;DHT22;6639;50.956;4.242;2023-01-08T08:48:46;12.80;99.90
13148;DHT22;6639;50.956;4.242;2023-01-08T08:51:13;12.30;99.90
13148;DHT22;6639;50.956;4.242;2023-01-08T08:53:42;12.20;99.90
13148;DHT22;6639;50.956;4.242;2023-01-08T08:56:09;12.40;99.90
13148;DHT22;6639;50.956;4.242;2023-01-08T08:58:44;12.60;99.90
13148;DHT22;6639;50.956;4.242;2023-01-08T09:01:11;12.60;99.90
13148;DHT22;6639;50.956;4.242;2023-01-08T09:03:38;12.40;99.90
13148;DHT22;6639;50.956;4.242;2023-01-08T09:06:06;12.90;99.90
13148;DHT22;6639;50.956;4.242;2023-01-08T09:08:38;13.20;99.90
13148;DHT22;6639;50.956;4.242;2023-01-08T09:11:09;13.30;99.90
13148;DHT22;6639;50.956;4.242;2023-01-08T09:13:37;13.10;99.90
13148;DHT22;6639;50.956;4.242;2023-01-08T09:16:04;13.30;99.90
13148;DHT22;6639;50.956;4.242;2023-01-08T09:18:32;13.50;99.90
13148;DHT22;6639;50.956;4.242;2023-01-08T09:21:03;13.50;99.90
13148;DHT22;6639;50.956;4.242;2023-01-08T09:23:31;13.70;99.90
13148;DHT22;6639;50.956;4.242;2023-01-08T09:25:59;13.40;99.90
13148;DHT22;6639;50.956;4.242;2023-01-08T09:28:27;14.00;99.90
13148;DHT22;6639;50.956;4.242;2023-01-08T09:30:55;14.50;99.90
13148;DHT22;6639;50.956;4.242;2023-01-08T09:33:22;15.40;99.90
13148;DHT22;6639;50.956;4.242;2023-01-08T09:35:49;15.80;99.90
13148;DHT22;6639;50.956;4.242;2023-01-08T09:38:17;15.70;99.90
13148;DHT22;6639;50.956;4.242;2023-01-08T09:40:52;15.70;99.90
13148;DHT22;6639;50.956;4.242;2023-01-08T09:43:23;15.90;99.90
13148;DHT22;6639;50.956;4.242;2023-01-08T09:45:55;15.70;99.90
13148;DHT22;6639;50.956;4.242;2023-01-08T09:48:26;16.00;99.90
13148;DHT22;6639;50.956;4.242;2023-01-08T09:50:54;15.80;99.90
13148;DHT22;6639;50.956;4.242;2023-01-08T09:53:25;15.60;99.90
13148;DHT22;6639;50.956;4.242;2023-01-08T09:55:55;15.70;99.90
13148;DHT22;6639;50.956;4.242;2023-01-08T09:58:31;15.50;99.90
13148;DHT22;6639;50.956;4.242;2023-01-08T10:01:02;15.50;99.90
13148;DHT22;6639;50.956;4.242;2023-01-08T10:03:39;15.30;99.90
13148;DHT22;6639;50.956;4.242;2023-01-08T10:06:09;15.10;99.90
13148;DHT22;6639;50.956;4.242;2023-01-08T10:08:36;15.30;99.90
13148;DHT22;6639;50.956;4.242;2023-01-08T10:11:04;15.40;99.90
13148;DHT22;6639;50.956;4.242;2023-01-08T10:13:35;15.30;99.90
13148;DHT22;6639;50.956;4.242;2023-01-08T10:16:08;15.40;99.90
13148;DHT22;6639;50.956;4.242;2023-01-08T10:18:37;14.60;99.90
13148;DHT22;6639;50.956;4.242;2023-01-08T10:21:21;14.10;99.90
13148;DHT22;6639;50.956;4.242;2023-01-08T10:23:52;14.70;99.90
13148;DHT22;6639;50.956;4.242;2023-01-08T10:26:32;14.90;99.90
13148;DHT22;6639;50.956;4.242;2023-01-08T10:29:06;15.60;99.90
13148;DHT22;6639;50.956;4.242;2023-01-08T10:31:48;16.00;99.90
13148;DHT22;6639;50.956;4.242;2023-01-08T10:34:31;15.90;99.90
13148;DHT22;6639;50.956;4.242;2023-01-08T10:37:16;15.00;99.90
13148;DHT22;6639;50.956;4.242;2023-01-08T10:39:48;14.70;99.90
13148;DHT22;6639;50.956;4.242;2023-01-08T10:42:18;14.40;99.90
13148;DHT22;6639;50.956;4.242;2023-01-08T10:44:52;14.30;99.90
13148;DHT22;6639;50.956;4.242;2023-01-08T10:47:22;14.70;99.90
13148;DHT22;6639;50.956;4.242;2023-01-08T10:49:50;15.10;99.90
13148;DHT22;6639;50.956;4.242;2023-01-08T10:52:27;15.20;99.90
13148;DHT22;6639;50.956;4.242;2023-01-08T10:54:56;14.80;99.90
13148;DHT22;6639;50.956;4.242;2023-01-08T10:57:25;14.30;99.90
13148;DHT22;6639;50.956;4.242;2023-01-08T10:59:55;14.60;99.90
13148;DHT22;6639;50.956;4.242;2023-01-08T11:02:33;13.80;99.90
13148;DHT22;6639;50.956;4.242;2023-01-08T11:05:05;13.30;99.90
13148;DHT22;6639;50.956;4.242;2023-01-08T11:07:41;13.70;99.90
13148;DHT22;6639;50.956;4.242;2023-01-08T11:10:21;13.70;99.90
13148;DHT22;6639;50.956;4.242;2023-01-08T11:12:56;13.90;99.90
13148;DHT22;6639;50.956;4.242;2023-01-08T11:15:33;14.60;99.90
13148;DHT22;6639;50.956;4.242;2023-01-08T11:18:17;14.70;99.90
13148;DHT22;6639;50.956;4.242;2023-01-08T11:20:50;15.00;99.90
13148;DHT22;6639;50.956;4.242;2023-01-08T11:23:19;15.40;99.90
13148;DHT22;6639;50.956;4.242;2023-01-08T11:26:00;15.30;99.90
13148;DHT22;6639;50.956;4.242;2023-01-08T11:28:42;14.70;99.90
13148;DHT22;6639;50.956;4.242;2023-01-08T11:31:16;15.20;99.90
13148;DHT22;6639;50.956;4.242;2023-01-08T11:33:46;15.40;99.90
13148;DHT22;6639;50.956;4.242;2023-01-08T11:36:22;15.50;99.90
13148;DHT22;6639;50.956;4.242;2023-01-08T11:38:51;15.40;99.90
13148;DHT22;6639;50.956;4.242;2023-01-08T11:41:38;15.10;99.90
13148;DHT22;6639;50.956;4.242;2023-01-08T11:44:20;15.00;99.90
13148;DHT22;6639;50.956;4.242;2023-01-08T11:47:00;14.90;99.90
13148;DHT22;6639;50.956;4.242;2023-01-08T11:49:43;14.70;99.90
13148;DHT22;6639;50.956;4.242;2023-01-08T11:52:25;14.70;99.90
13148;DHT22;6639;50.956;4.242;2023-01-08T11:55:15;14.70;99.90
13148;DHT22;6639;50.956;4.242;2023-01-08T11:58:03;15.10;99.90
13148;DHT22;6639;50.956;4.242;2023-01-08T12:00:50;14.70;99.90
13148;DHT22;6639;50.956;4.242;2023-01-08T12:03:28;14.30;99.90
13148;DHT22;6639;50.956;4.242;2023-01-08T12:06:03;14.20;99.90
13148;DHT22;6639;50.956;4.242;2023-01-08T12:08:39;14.30;99.90
13148;DHT22;6639;50.956;4.242;2023-01-08T12:11:18;14.00;99.90
13148;DHT22;6639;50.956;4.242;2023-01-08T12:14:05;13.40;99.90
13148;DHT22;6639;50.956;4.242;2023-01-08T12:16:54;13.00;99.90
13148;DHT22;6639;50.956;4.242;2023-01-08T12:19:32;13.00;99.90
13148;DHT22;6639;50.956;4.242;2023-01-08T12:22:17;13.00;99.90
13148;DHT22;6639;50.956;4.242;2023-01-08T12:25:18;13.40;99.90
13148;DHT22;6639;50.956;4.242;2023-01-08T12:27:57;13.20;99.90
13148;DHT22;6639;50.956;4.242;2023-01-08T12:30:31;13.40;99.90
13148;DHT22;6639;50.956;4.242;2023-01-08T12:33:03;13.50;99.90
13148;DHT22;6639;50.956;4.242;2023-01-08T12:35:36;13.80;99.90
13148;DHT22;6639;50.956;4.242;2023-01-08T12:38:09;13.50;99.90
13148;DHT22;6639;50.956;4.242;2023-01-08T12:40:39;13.70;99.90
13148;DHT22;6639;50.956;4.242;2023-01-08T12:43:11;14.20;99.90
13148;DHT22;6639;50.956;4.242;2023-01-08T12:45:42;13.90;99.90
13148;DHT22;6639;50.956;4.242;2023-01-08T12:48:13;13.60;99.90
13148;DHT22;6639;50.956;4.242;2023-01-08T12:50:58;13.50;99.90
13148;DHT22;6639;50.956;4.242;2023-01-08T12:53:41;13.20;99.90
13148;DHT22;6639;50.956;4.242;2023-01-08T12:56:13;12.80;99.90
13148;DHT22;6639;50.956;4.242;2023-01-08T12:58:53;12.90;99.90
13148;DHT22;6639;50.956;4.242;2023-01-08T13:01:30;12.70;99.90
13148;DHT22;6639;50.956;4.242;2023-01-08T13:04:06;13.10;99.90
13148;DHT22;6639;50.956;4.242;2023-01-08T13:06:34;13.50;99.90
13148;DHT22;6639;50.956;4.242;2023-01-08T13:09:14;14.10;99.90
13148;DHT22;6639;50.956;4.242;2023-01-08T13:11:50;13.80;99.90
13148;DHT22;6639;50.956;4.242;2023-01-08T13:14:20;14.20;99.90
13148;DHT22;6639;50.956;4.242;2023-01-08T13:17:00;14.60;99.90
13148;DHT22;6639;50.956;4.242;2023-01-08T13:19:30;14.80;99.90
13148;DHT22;6639;50.956;4.242;2023-01-08T13:22:00;15.30;99.90
13148;DHT22;6639;50.956;4.242;2023-01-08T13:24:34;15.20;99.90
13148;DHT22;6639;50.956;4.242;2023-01-08T13:27:11;14.90;99.90
13148;DHT22;6639;50.956;4.242;2023-01-08T13:29:41;14.90;99.90
13148;DHT22;6639;50.956;4.242;2023-01-08T13:32:40;14.90;99.90
13148;DHT22;6639;50.956;4.242;2023-01-08T13:35:22;14.50;99.90
13148;DHT22;6639;50.956;4.242;2023-01-08T13:38:12;13.90;99.90
13148;DHT22;6639;50.956;4.242;2023-01-08T13:40:54;13.90;99.90
13148;DHT22;6639;50.956;4.242;2023-01-08T13:43:28;14.70;99.90
13148;DHT22;6639;50.956;4.242;2023-01-08T13:46:07;14.80;99.90
13148;DHT22;6639;50.956;4.242;2023-01-08T13:48:47;14.60;99.90
13148;DHT22;6639;50.956;4.242;2023-01-08T13:51:30;14.30;99.90
13148;DHT22;6639;50.956;4.242;2023-01-08T13:54:05;14.20;99.90
13148;DHT22;6639;50.956;4.242;2023-01-08T13:56:51;14.50;99.90
13148;DHT22;6639;50.956;4.242;2023-01-08T13:59:35;13.90;99.90
13148;DHT22;6639;50.956;4.242;2023-01-08T14:02:31;14.60;99.90
13148;DHT22;6639;50.956;4.242;2023-01-08T14:05:22;14.80;99.90
13148;DHT22;6639;50.956;4.242;2023-01-08T14:07:51;14.50;99.90
13148;DHT22;6639;50.956;4.242;2023-01-08T14:10:19;14.40;99.90
13148;DHT22;6639;50.956;4.242;2023-01-08T14:12:49;14.40;99.90
13148;DHT22;6639;50.956;4.242;2023-01-08T14:15:22;14.60;99.90
13148;DHT22;6639;50.956;4.242;2023-01-08T14:18:00;14.40;99.90
13148;DHT22;6639;50.956;4.242;2023-01-08T14:23:57;14.40;99.90
13148;DHT22;6639;50.956;4.242;2023-01-08T14:26:30;14.20;99.90
13148;DHT22;6639;50.956;4.242;2023-01-08T14:29:02;14.40;99.90
13148;DHT22;6639;50.956;4.242;2023-01-08T14:31:31;14.20;99.90
13148;DHT22;6639;50.956;4.242;2023-01-08T14:34:02;13.80;99.90
13148;DHT22;6639;50.956;4.242;2023-01-08T14:36:33;13.90;99.90
13148;DHT22;6639;50.956;4.242;2023-01-08T14:39:00;13.50;99.90
13148;DHT22;6639;50.956;4.242;2023-01-08T14:41:35;13.30;99.90
13148;DHT22;6639;50.956;4.242;2023-01-08T14:44:19;13.70;99.90
13148;DHT22;6639;50.956;4.242;2023-01-08T14:46:49;13.30;99.90
13148;DHT22;6639;50.956;4.242;2023-01-08T14:49:29;13.10;99.90
13148;DHT22;6639;50.956;4.242;2023-01-08T14:52:11;13.30;99.90
13148;DHT22;6639;50.956;4.242;2023-01-08T14:54:45;13.60;99.90
13148;DHT22;6639;50.956;4.242;2023-01-08T14:57:20;14.00;99.90
13148;DHT22;6639;50.956;4.242;2023-01-08T14:59:52;14.40;99.90
13148;DHT22;6639;50.956;4.242;2023-01-08T15:02:26;14.40;99.90
13148;DHT22;6639;50.956;4.242;2023-01-08T15:05:29;14.60;99.90
13148;DHT22;6639;50.956;4.242;2023-01-08T15:08:22;14.30;99.90
13148;DHT22;6639;50.956;4.242;2023-01-08T15:14:24;14.00;99.90
13148;DHT22;6639;50.956;4.242;2023-01-08T15:17:24;14.30;99.90
13148;DHT22;6639;50.956;4.242;2023-01-08T15:19:58;14.20;99.90
13148;DHT22;6639;50.956;4.242;2023-01-08T15:22:28;14.20;99.90
13148;DHT22;6639;50.956;4.242;2023-01-08T15:24:59;14.10;99.90
13148;DHT22;6639;50.956;4.242;2023-01-08T15:27:54;14.00;99.90
13148;DHT22;6639;50.956;4.242;2023-01-08T15:30:42;13.70;99.90
13148;DHT22;6639;50.956;4.242;2023-01-08T15:33:18;13.80;99.90
13148;DHT22;6639;50.956;4.242;2023-01-08T15:35:47;13.80;99.90
13148;DHT22;6639;50.956;4.242;2023-01-08T15:38:22;13.50;99.90
13148;DHT22;6639;50.956;4.242;2023-01-08T15:40:50;13.90;99.90
13148;DHT22;6639;50.956;4.242;2023-01-08T15:43:19;13.70;99.90
13148;DHT22;6639;50.956;4.242;2023-01-08T15:45:47;13.30;99.90
13148;DHT22;6639;50.956;4.242;2023-01-08T15:48:16;13.30;99.90
13148;DHT22;6639;50.956;4.242;2023-01-08T15:50:47;13.30;99.90
13148;DHT22;6639;50.956;4.242;2023-01-08T15:53:28;13.30;99.90
13148;DHT22;6639;50.956;4.242;2023-01-08T15:55:55;13.40;99.90
13148;DHT22;6639;50.956;4.242;2023-01-08T15:58:24;13.60;99.90
13148;DHT22;6639;50.956;4.242;2023-01-08T16:00:51;13.60;99.90
13148;DHT22;6639;50.956;4.242;2023-01-08T16:03:20;13.50;99.90
13148;DHT22;6639;50.956;4.242;2023-01-08T16:05:50;13.60;99.90
13148;DHT22;6639;50.956;4.242;2023-01-08T16:08:17;13.40;99.90
13148;DHT22;6639;50.956;4.242;2023-01-08T16:10:44;13.60;99.90
13148;DHT22;6639;50.956;4.242;2023-01-08T16:13:31;13.40;99.90
13148;DHT22;6639;50.956;4.242;2023-01-08T16:16:11;13.40;99.90
13148;DHT22;6639;50.956;4.242;2023-01-08T16:18:43;13.20;99.90